Adrar/Touat-Cheikh Sidi Mohamed Belkebir Airport

Airport
ICAO code: 
DAUA
IATA Code: 
AZR
Summary
ICAO Region: 
AFI
Territory: 
Location: 
Adrar, Adrar
Serving: 
Adrar
Elevation: 
919 ft
Coordinates: 
Aerial View: 
27° 50' 21.001" N, 0° 11' 7.001" W
Metar
Observation
DAUA 020400Z 02007KT CAVOK 06/04 Q1018
Station
Adrar
Date/Time
2021-12-02 04:00:00
Wind direction
20°
Wind speed
07 kts
Lowest cloud amount
clouds and visibility OK
Temperature
6°C
Dew point
4°C
Humidity
86%
QNH
1018 hPa
Weather condition
n/a

Description

Touat-Cheikh Sidi Mohamed Belkebir Airport is a public airport located 6 nm southeast of Adrar, the capital of the Adrar province in Algeria.

Runways

Designator Length Width Surface Rops
4/22 3000 45 ASP No/No
Airport map: 
Aerial View: 

SKYbrary Partners:

Safety knowledge contributed by: